Time;durP1;ratioP1;P1;durP2;ratioP2;P2;SDS_P1;SDS_P2;PMS_P1;PMS_P2;Temp;Humidity;BMP_temperature;BMP_pressure;BME280_temperature;BME280_humidity;BME280_pressure;Samples;Min_cycle;Max_cycle;Signal;HPM_P1;HPM_P2
2023/07/24 00:02:00;;;;;;;7.43;4.07;;;;;;;17.61;75.97;100390.63;7402515;19;19990;-72
2023/07/24 00:04:32;;;;;;;7.93;4.43;;;;;;;17.57;76.02;100383.97;7401883;19;19914;-72
2023/07/24 00:07:03;;;;;;;6.38;3.60;;;;;;;17.56;76.23;100390.50;7401043;19;19935;-73
2023/07/24 00:09:32;;;;;;;9.05;4.45;;;;;;;17.55;75.90;100378.78;7400031;19;19963;-72
2023/07/24 00:12:00;;;;;;;9.18;3.80;;;;;;;17.53;76.38;100377.34;7400944;19;19922;-73
2023/07/24 00:14:29;;;;;;;9.25;3.67;;;;;;;17.52;76.42;100389.28;7398012;19;20011;-72
2023/07/24 00:16:58;;;;;;;8.48;4.60;;;;;;;17.52;76.21;100383.84;7401029;19;19918;-73
2023/07/24 00:19:27;;;;;;;7.75;3.70;;;;;;;17.48;76.22;100380.75;7399272;19;19930;-72
2023/07/24 00:21:58;;;;;;;8.63;3.88;;;;;;;17.45;76.23;100377.69;7400950;19;19947;-72
2023/07/24 00:24:27;;;;;;;6.70;3.80;;;;;;;17.43;76.31;100388.00;7399366;19;20396;-73
2023/07/24 00:26:55;;;;;;;8.75;3.88;;;;;;;17.39;76.66;100384.88;7400217;19;19926;-73
2023/07/24 00:29:24;;;;;;;6.40;3.83;;;;;;;17.38;76.38;100376.97;7399683;19;20285;-73
2023/07/24 00:31:52;;;;;;;5.68;3.10;;;;;;;17.35;76.52;100375.53;7402083;19;20393;-72
2023/07/24 00:34:21;;;;;;;7.03;4.07;;;;;;;17.33;76.61;100382.28;7398295;19;19915;-72
2023/07/24 00:36:50;;;;;;;7.70;3.72;;;;;;;17.32;77.06;100377.88;7397817;19;19948;-72
2023/07/24 00:39:21;;;;;;;9.93;3.97;;;;;;;17.29;77.26;100378.34;7400122;19;19918;-72
2023/07/24 00:41:49;;;;;;;6.82;3.85;;;;;;;17.26;77.07;100385.09;7399371;19;19923;-73
2023/07/24 00:44:21;;;;;;;5.60;3.55;;;;;;;17.23;77.27;100377.38;7400275;19;19927;-73
2023/07/24 00:46:50;;;;;;;;;;;;;;;17.04;78.55;100378.53;7402344;19;19922;-72
2023/07/24 00:49:20;;;;;;;9.88;4.30;;;;;;;17.15;77.06;100375.84;7400132;19;19993;-72
2023/07/24 00:51:49;;;;;;;6.22;4.03;;;;;;;17.15;77.21;100381.28;7398902;19;19927;-72
2023/07/24 00:54:22;;;;;;;9.00;3.97;;;;;;;17.15;77.60;100375.00;7400071;19;19939;-72
2023/07/24 00:56:51;;;;;;;7.28;3.60;;;;;;;17.14;77.78;100370.59;7398014;19;19943;-73
2023/07/24 00:59:19;;;;;;;10.10;4.65;;;;;;;17.14;77.86;100374.16;7400319;19;19918;-72
2023/07/24 01:01:50;;;;;;;8.65;4.50;;;;;;;17.13;77.78;100377.09;7397934;19;19922;-73
2023/07/24 01:04:19;;;;;;;7.57;4.05;;;;;;;17.10;77.90;100370.25;7400083;19;19933;-73
2023/07/24 01:06:48;;;;;;;7.40;3.78;;;;;;;17.09;78.08;100374.03;7398919;19;19955;-73
2023/07/24 01:09:16;;;;;;;11.45;4.15;;;;;;;17.08;78.43;100375.09;7399487;19;19922;-72
2023/07/24 01:11:52;;;;;;;8.35;4.63;;;;;;;17.06;78.22;100371.78;7397171;19;19931;-73
2023/07/24 01:14:25;;;;;;;12.05;4.75;;;;;;;17.07;78.40;100370.72;7398258;19;20018;-73
2023/07/24 01:16:58;;;;;;;5.78;4.07;;;;;;;17.07;78.25;100362.56;7397941;19;19922;-72
2023/07/24 01:19:40;;;;;;;9.85;4.75;;;;;;;17.02;78.99;100367.84;7398566;19;20401;-72
2023/07/24 01:22:16;;;;;;;7.63;3.90;;;;;;;17.01;79.05;100363.47;7399311;19;19974;-73
2023/07/24 01:25:03;;;;;;;7.45;4.35;;;;;;;16.94;79.74;100370.06;7397450;19;19948;-71
2023/07/24 01:27:34;;;;;;;8.68;4.43;;;;;;;16.98;78.98;100371.28;7399437;19;19923;-71
2023/07/24 01:30:03;;;;;;;12.80;4.32;;;;;;;16.95;78.81;100372.56;7397471;19;19970;-72
2023/07/24 01:32:32;;;;;;;9.32;4.45;;;;;;;16.94;78.95;100364.63;7396128;19;19923;-72
2023/07/24 01:35:00;;;;;;;10.43;4.45;;;;;;;16.90;79.02;100352.56;7396636;19;19918;-72
2023/07/24 01:37:30;;;;;;;6.85;4.03;;;;;;;16.88;79.60;100355.50;7399419;19;20276;-72
2023/07/24 01:39:59;;;;;;;11.65;5.97;;;;;;;16.83;79.53;100358.06;7395101;19;19918;-71
2023/07/24 01:42:28;;;;;;;9.90;5.30;;;;;;;16.80;80.30;100353.09;7399191;19;19923;-71
2023/07/24 01:45:00;;;;;;;8.95;4.97;;;;;;;16.78;80.35;100352.50;7395849;19;19918;-72
2023/07/24 01:47:29;;;;;;;11.75;5.68;;;;;;;16.76;80.84;100343.75;7395544;19;19918;-72
2023/07/24 01:49:58;;;;;;;10.75;5.80;;;;;;;16.76;80.97;100341.84;7397747;19;20457;-72
2023/07/24 01:52:26;;;;;;;10.60;5.50;;;;;;;16.73;81.96;100338.75;7397308;19;19930;-72
2023/07/24 01:54:55;;;;;;;10.85;5.57;;;;;;;16.71;82.27;100347.16;7395771;19;20350;-72
2023/07/24 01:57:24;;;;;;;8.75;5.72;;;;;;;16.71;82.66;100340.88;7397146;19;20367;-72
2023/07/24 01:59:52;;;;;;;8.60;6.22;;;;;;;16.72;83.04;100342.53;7397284;19;19974;-72
2023/07/24 02:02:23;;;;;;;10.25;6.57;;;;;;;16.75;82.86;100340.19;7397448;19;19919;-73
2023/07/24 02:04:52;;;;;;;13.65;6.93;;;;;;;16.75;82.70;100326.59;7397715;19;19986;-73
2023/07/24 02:07:20;;;;;;;8.43;6.45;;;;;;;16.75;83.08;100320.31;7396243;19;20385;-73
2023/07/24 02:09:49;;;;;;;11.20;7.13;;;;;;;16.73;83.03;100322.44;7396811;19;20708;-73
2023/07/24 02:12:18;;;;;;;12.55;7.20;;;;;;;16.72;83.71;100320.78;7399283;19;20384;-72
2023/07/24 02:14:49;;;;;;;12.30;7.28;;;;;;;16.73;83.42;100325.16;7396354;19;19926;-72
2023/07/24 02:17:18;;;;;;;10.93;6.80;;;;;;;16.72;83.88;100315.34;7398465;19;19930;-72
2023/07/24 02:19:50;;;;;;;12.23;7.93;;;;;;;16.72;84.04;100310.72;7397295;19;19936;-72
2023/07/24 02:22:18;;;;;;;11.70;6.45;;;;;;;16.72;83.58;100310.72;7397542;19;20000;-72
2023/07/24 02:24:47;;;;;;;11.60;6.80;;;;;;;16.74;84.03;100313.19;7396371;19;20306;-72
2023/07/24 02:27:27;;;;;;;12.80;7.82;;;;;;;16.73;83.57;100309.69;7396348;19;19926;-73
2023/07/24 02:29:55;;;;;;;11.73;7.47;;;;;;;16.72;83.23;100304.47;7397805;19;19922;-71
2023/07/24 02:32:24;;;;;;;15.02;8.18;;;;;;;16.69;83.60;100294.88;7398376;19;19925;-73
2023/07/24 02:34:55;;;;;;;10.93;7.22;;;;;;;16.67;83.85;100288.81;7396779;19;19926;-72
2023/07/24 02:37:24;;;;;;;13.43;8.18;;;;;;;16.66;84.45;100303.47;7396091;19;19918;-72
2023/07/24 02:39:54;;;;;;;10.00;7.25;;;;;;;16.64;84.42;100311.06;7394531;19;19922;-72
2023/07/24 02:42:22;;;;;;;10.38;6.68;;;;;;;16.63;84.21;100303.13;7398017;19;19922;-72
2023/07/24 02:44:53;;;;;;;13.20;6.75;;;;;;;16.65;84.25;100303.72;7394723;19;19931;-72
2023/07/24 02:47:21;;;;;;;10.65;7.28;;;;;;;16.65;84.25;100309.16;7393461;19;19929;-72
2023/07/24 02:49:50;;;;;;;11.10;7.18;;;;;;;16.64;84.35;100304.78;7395882;19;19919;-72
2023/07/24 02:52:21;;;;;;;11.95;7.32;;;;;;;16.65;84.42;100306.44;7396070;19;19915;-72
2023/07/24 02:54:49;;;;;;;8.98;6.38;;;;;;;16.66;84.07;100306.19;7392913;19;19923;-71
2023/07/24 02:57:18;;;;;;;12.88;8.05;;;;;;;16.66;83.82;100316.25;7397724;19;19939;-72
2023/07/24 02:59:47;;;;;;;9.48;6.68;;;;;;;16.65;84.15;100320.06;7393920;19;19947;-72
2023/07/24 03:02:16;;;;;;;10.63;6.78;;;;;;;16.63;84.13;100317.53;7396452;19;20211;-72
2023/07/24 03:04:44;;;;;;;10.45;7.53;;;;;;;16.61;84.31;100308.78;7397255;19;19939;-72
2023/07/24 03:07:13;;;;;;;10.88;6.95;;;;;;;16.63;84.15;100308.56;7395697;19;22569;-72
2023/07/24 03:09:44;;;;;;;10.48;7.35;;;;;;;16.64;83.99;100307.50;7395359;19;19935;-72
2023/07/24 03:12:13;;;;;;;8.98;6.13;;;;;;;16.64;83.96;100308.34;7395165;19;19951;-72
2023/07/24 03:14:41;;;;;;;9.43;5.55;;;;;;;16.65;83.94;100309.16;7394990;19;19938;-72
2023/07/24 03:17:11;;;;;;;9.27;6.10;;;;;;;16.65;83.81;100314.59;7394884;19;19922;-73
2023/07/24 03:19:39;;;;;;;10.48;6.15;;;;;;;16.64;83.81;100316.50;7395874;19;19922;-72
2023/07/24 03:22:09;;;;;;;10.80;6.57;;;;;;;16.63;84.13;100322.16;7394642;19;19937;-72
2023/07/24 03:24:38;;;;;;;9.70;6.03;;;;;;;16.63;84.24;100322.16;7397139;19;19951;-71
2023/07/24 03:27:09;;;;;;;9.55;5.97;;;;;;;16.63;84.44;100335.75;7394383;19;20404;-71
2023/07/24 03:29:39;;;;;;;11.63;6.88;;;;;;;16.61;84.09;100325.09;7394203;19;19988;-72
2023/07/24 03:32:08;;;;;;;10.70;7.10;;;;;;;16.61;83.64;100324.28;7395466;19;19931;-71
2023/07/24 03:34:37;;;;;;;10.73;6.53;;;;;;;16.59;83.93;100321.78;7392760;19;19940;-72
2023/07/24 03:37:06;;;;;;;11.82;6.60;;;;;;;16.59;84.19;100318.25;7393491;19;20004;-72
2023/07/24 03:39:34;;;;;;;10.00;6.18;;;;;;;16.57;84.65;100317.59;7392875;19;20298;-72
2023/07/24 03:42:03;;;;;;;10.05;6.90;;;;;;;16.54;84.37;100308.00;7394975;19;19930;-72
2023/07/24 03:44:34;;;;;;;12.50;7.18;;;;;;;16.51;84.57;100311.19;7393796;19;19926;-72
2023/07/24 03:47:03;;;;;;;11.43;7.20;;;;;;;16.49;84.39;100312.47;7394232;19;19923;-72
2023/07/24 03:49:31;;;;;;;11.15;6.78;;;;;;;16.47;84.46;100301.00;7391141;19;19985;-71
2023/07/24 03:52:00;;;;;;;8.02;5.95;;;;;;;16.47;84.70;100309.16;7390026;19;20298;-72
2023/07/24 03:54:28;;;;;;;9.57;6.22;;;;;;;16.48;84.36;100308.13;7392770;19;19923;-72
2023/07/24 03:56:57;;;;;;;10.25;6.63;;;;;;;16.48;84.84;100308.91;7394673;19;19930;-72
2023/07/24 03:59:25;;;;;;;10.85;7.32;;;;;;;16.49;84.91;100307.88;7394266;19;19929;-72
2023/07/24 04:01:57;;;;;;;9.40;6.22;;;;;;;16.51;84.60;100313.09;7394121;19;19923;-72
2023/07/24 04:04:26;;;;;;;8.93;6.38;;;;;;;16.51;84.55;100307.66;7384937;19;20582;-73
2023/07/24 04:06:54;;;;;;;9.73;6.28;;;;;;;16.51;84.94;100300.31;7379731;19;19939;-72
2023/07/24 04:09:23;;;;;;;10.38;5.70;;;;;;;16.50;84.93;100304.09;7389933;19;19929;-73
2023/07/24 04:11:51;;;;;;;11.10;6.70;;;;;;;16.51;85.03;100316.63;7390540;19;19922;-72
2023/07/24 04:14:20;;;;;;;8.85;6.85;;;;;;;16.52;84.73;100309.31;7394042;19;19985;-72
2023/07/24 04:16:49;;;;;;;10.73;6.05;;;;;;;16.52;85.03;100299.28;7391970;19;20358;-72
2023/07/24 04:19:20;;;;;;;8.75;6.07;;;;;;;16.53;85.08;100300.91;7388083;19;19922;-73
2023/07/24 04:21:49;;;;;;;9.35;6.00;;;;;;;16.54;84.60;100313.44;7394462;19;20393;-73
2023/07/24 04:24:19;;;;;;;9.65;6.10;;;;;;;16.55;85.02;100311.56;7392284;19;19943;-73
2023/07/24 04:26:47;;;;;;;8.10;6.10;;;;;;;16.54;84.74;100301.75;7391861;19;19922;-73
2023/07/24 04:29:16;;;;;;;7.78;5.25;;;;;;;16.53;84.59;100300.91;7382879;19;19956;-72
2023/07/24 04:31:45;;;;;;;10.05;5.63;;;;;;;16.55;84.53;100289.81;7368382;19;20343;-72
2023/07/24 04:34:13;;;;;;;10.07;5.88;;;;;;;16.55;84.87;100290.66;7375947;19;19934;-72
2023/07/24 04:36:44;;;;;;;11.85;6.30;;;;;;;16.56;84.68;100296.91;7394522;19;19926;-72
2023/07/24 04:39:13;;;;;;;8.30;6.43;;;;;;;16.56;84.58;100277.88;7397713;19;20714;-71
2023/07/24 04:41:41;;;;;;;10.18;6.25;;;;;;;16.58;84.46;100275.78;7386120;19;19926;-73
2023/07/24 04:44:10;;;;;;;9.80;6.10;;;;;;;16.59;84.87;100270.13;7394498;19;19930;-71
2023/07/24 04:46:39;;;;;;;8.07;5.85;;;;;;;16.61;84.90;100276.13;7399809;19;19918;-71
2023/07/24 04:49:07;;;;;;;10.00;5.72;;;;;;;16.60;84.77;100279.94;7389483;19;19981;-72
2023/07/24 04:51:36;;;;;;;8.50;5.90;;;;;;;16.61;84.86;100297.91;7394745;19;19939;-71
2023/07/24 04:54:07;;;;;;;11.80;6.07;;;;;;;16.61;84.88;100297.09;7391455;19;20002;-71
2023/07/24 04:56:36;;;;;;;7.72;4.97;;;;;;;16.61;84.78;100292.47;7378115;19;21791;-72
2023/07/24 04:59:04;;;;;;;9.32;5.57;;;;;;;16.64;84.53;100280.31;7386293;19;20608;-72
2023/07/24 05:01:33;;;;;;;12.75;6.00;;;;;;;16.66;84.85;100278.16;7398345;19;19918;-72
2023/07/24 05:04:01;;;;;;;9.73;5.47;;;;;;;16.67;84.54;100275.22;7401193;19;19947;-71
2023/07/24 05:06:30;;;;;;;8.00;5.47;;;;;;;16.68;84.69;100276.91;7397466;19;19918;-71
2023/07/24 05:08:58;;;;;;;8.00;5.18;;;;;;;16.71;84.69;100270.16;7399246;19;20331;-72
2023/07/24 05:11:30;;;;;;;12.27;5.75;;;;;;;16.75;84.47;100263.19;7398776;19;19951;-71
2023/07/24 05:13:58;;;;;;;8.90;5.95;;;;;;;16.78;84.21;100255.38;7399331;19;19974;-72
2023/07/24 05:16:27;;;;;;;10.15;5.40;;;;;;;16.81;84.20;100262.28;7395663;19;20327;-72
2023/07/24 05:18:55;;;;;;;9.02;5.90;;;;;;;16.83;84.60;100262.03;7399232;19;19974;-71
2023/07/24 05:21:24;;;;;;;12.43;5.78;;;;;;;16.83;84.49;100257.41;7399194;19;19923;-72
2023/07/24 05:23:53;;;;;;;10.82;5.75;;;;;;;16.84;84.55;100259.06;7397667;19;19939;-72
2023/07/24 05:26:22;;;;;;;8.55;5.88;;;;;;;16.86;84.13;100256.97;7397397;19;19921;-72
2023/07/24 05:28:53;;;;;;;10.00;6.40;;;;;;;16.88;84.61;100249.38;7399466;19;19918;-73
2023/07/24 05:31:24;;;;;;;9.80;5.82;;;;;;;16.90;84.00;100257.31;7396204;19;19918;-73
2023/07/24 05:33:52;;;;;;;7.95;5.72;;;;;;;16.94;84.44;100262.06;7398076;19;19933;-73
2023/07/24 05:36:21;;;;;;;10.63;5.78;;;;;;;16.96;84.11;100246.31;7387389;19;19922;-72
2023/07/24 05:38:50;;;;;;;8.48;5.75;;;;;;;16.99;83.78;100242.31;7384844;19;19926;-73
2023/07/24 05:41:18;;;;;;;11.15;6.15;;;;;;;17.03;83.58;100254.41;7398579;19;19947;-73
2023/07/24 05:43:47;;;;;;;8.57;4.97;;;;;;;17.06;83.89;100262.91;7376487;19;19914;-72
2023/07/24 05:46:18;;;;;;;8.50;5.40;;;;;;;17.08;83.64;100259.97;7390890;19;19918;-72
2023/07/24 05:48:47;;;;;;;9.20;5.75;;;;;;;17.12;83.28;100256.53;7393967;19;19914;-72
2023/07/24 05:51:17;;;;;;;7.38;4.80;;;;;;;17.19;82.93;100249.09;7391832;19;19953;-73
2023/07/24 05:53:46;;;;;;;8.43;5.15;;;;;;;17.23;82.83;100260.31;7397667;19;19986;-73
2023/07/24 05:56:15;;;;;;;9.43;4.95;;;;;;;17.27;82.77;100268.84;7395681;19;19931;-73
2023/07/24 05:58:43;;;;;;;7.90;5.55;;;;;;;17.31;82.91;100253.69;7396755;19;19926;-72
2023/07/24 06:01:12;;;;;;;8.02;5.68;;;;;;;17.37;82.56;100263.66;7398972;19;19931;-76
2023/07/24 06:03:43;;;;;;;7.95;5.75;;;;;;;17.39;82.52;100275.97;7398356;19;19929;-74
2023/07/24 06:06:12;;;;;;;7.97;5.30;;;;;;;17.42;82.37;100278.22;7399775;19;20312;-73
2023/07/24 06:08:40;;;;;;;7.88;5.07;;;;;;;17.46;82.11;100276.69;7397281;19;19943;-74
2023/07/24 06:11:10;;;;;;;8.45;5.82;;;;;;;17.52;81.83;100277.63;7398496;19;20520;-73
2023/07/24 06:13:38;;;;;;;7.15;5.18;;;;;;;17.55;82.00;100278.00;7397613;19;19919;-74
2023/07/24 06:16:07;;;;;;;7.15;5.32;;;;;;;17.57;81.82;100275.03;7395554;19;19951;-74
2023/07/24 06:18:36;;;;;;;7.13;5.38;;;;;;;17.57;81.65;100280.47;7399868;19;19922;-86
2023/07/24 06:21:07;;;;;;;8.85;5.68;;;;;;;17.56;81.40;100284.28;7402839;19;19919;-79
2023/07/24 06:23:36;;;;;;;9.93;5.20;;;;;;;17.55;81.73;100278.00;7397682;19;19926;-75
2023/07/24 06:26:04;;;;;;;8.85;5.45;;;;;;;17.57;81.79;100281.31;7397035;19;19923;-75
2023/07/24 06:28:34;;;;;;;7.45;5.32;;;;;;;17.57;81.92;100280.47;7397488;19;19943;-74
2023/07/24 06:31:02;;;;;;;8.25;5.97;;;;;;;17.55;81.74;100272.56;7398326;19;19962;-74
2023/07/24 06:33:31;;;;;;;8.73;5.32;;;;;;;17.54;81.55;100270.06;7394369;19;20472;-74
2023/07/24 06:35:59;;;;;;;9.30;5.80;;;;;;;17.50;81.18;100275.16;7397536;19;19940;-75
2023/07/24 06:38:30;;;;;;;8.15;5.07;;;;;;;17.50;81.47;100274.31;7398356;19;19922;-75
2023/07/24 06:40:59;;;;;;;7.90;5.90;;;;;;;17.49;81.25;100270.75;7398106;19;19943;-75
2023/07/24 06:43:28;;;;;;;11.05;5.85;;;;;;;17.51;81.54;100273.25;7395813;19;19926;-74
2023/07/24 06:45:56;;;;;;;8.05;5.45;;;;;;;17.54;81.28;100270.88;7396626;19;19926;-75
2023/07/24 06:48:25;;;;;;;9.90;5.63;;;;;;;17.59;81.15;100270.22;7397393;19;20318;-74
2023/07/24 06:50:53;;;;;;;8.25;5.32;;;;;;;17.64;80.94;100270.34;7394586;19;20348;-75
2023/07/24 06:53:22;;;;;;;8.55;5.80;;;;;;;17.68;81.36;100266.91;7395126;19;19939;-75
2023/07/24 06:55:53;;;;;;;10.00;5.32;;;;;;;17.73;81.22;100278.97;7394330;19;19919;-76
2023/07/24 06:58:22;;;;;;;10.68;6.25;;;;;;;17.74;80.38;100276.00;7397181;19;19926;-75
2023/07/24 07:00:50;;;;;;;9.27;6.10;;;;;;;17.76;80.60;100278.50;7394916;19;19935;-75
2023/07/24 07:03:19;;;;;;;11.00;6.75;;;;;;;17.77;80.81;100272.81;7398782;19;19922;-75
2023/07/24 07:05:47;;;;;;;10.57;5.72;;;;;;;17.81;80.73;100282.16;7398990;19;19951;-75
2023/07/24 07:08:16;;;;;;;11.70;5.75;;;;;;;17.84;80.50;100275.41;7397526;19;19922;-75
2023/07/24 07:10:44;;;;;;;12.02;5.43;;;;;;;17.89;80.72;100278.25;7395298;19;19943;-74
2023/07/24 07:13:16;;;;;;;9.45;5.57;;;;;;;17.91;80.71;100276.91;7395740;19;19935;-75
2023/07/24 07:15:47;;;;;;;11.55;5.38;;;;;;;17.96;80.60;100274.31;7392859;19;19939;-76
2023/07/24 07:18:16;;;;;;;;;;;;;;;17.86;80.17;100276.00;7400512;19;19943;-76
2023/07/24 07:20:48;;;;;;;10.07;5.35;;;;;;;18.01;80.09;100277.16;7395118;19;19955;-74
2023/07/24 07:23:17;;;;;;;10.40;5.22;;;;;;;18.06;79.85;100287.34;7398596;19;19922;-74
2023/07/24 07:25:45;;;;;;;10.10;5.63;;;;;;;18.07;79.88;100270.75;7399335;19;20243;-73
2023/07/24 07:28:18;;;;;;;13.98;5.75;;;;;;;18.12;79.67;100273.56;7399980;19;20205;-73
2023/07/24 07:30:48;;;;;;;8.00;5.38;;;;;;;18.15;79.71;100269.53;7401594;19;19915;-74
2023/07/24 07:33:16;;;;;;;10.82;5.97;;;;;;;18.16;79.71;100275.81;7399977;19;20336;-74
2023/07/24 07:35:45;;;;;;;9.88;6.03;;;;;;;18.14;79.30;100270.59;7393780;19;19947;-74
2023/07/24 07:38:14;;;;;;;11.02;5.80;;;;;;;18.15;79.48;100266.81;7397516;19;19926;-74
2023/07/24 07:40:42;;;;;;;8.50;5.40;;;;;;;18.20;79.36;100269.66;7397620;19;19922;-74
2023/07/24 07:43:11;;;;;;;13.18;5.95;;;;;;;18.24;79.14;100265.38;7398763;19;19923;-75
2023/07/24 07:45:42;;;;;;;7.22;5.20;;;;;;;18.30;79.16;100269.00;7395652;19;19911;-74
2023/07/24 07:48:11;;;;;;;10.10;6.00;;;;;;;18.32;79.33;100255.97;7404965;19;19944;-73
2023/07/24 07:50:39;;;;;;;11.35;6.18;;;;;;;18.36;79.13;100268.88;7403442;19;19930;-74
2023/07/24 07:53:08;;;;;;;11.48;6.05;;;;;;;18.38;78.66;100261.25;7404778;19;19926;-74
2023/07/24 07:55:37;;;;;;;9.20;5.15;;;;;;;18.39;78.93;100267.56;7402978;19;19936;-74
2023/07/24 07:58:05;;;;;;;9.57;6.18;;;;;;;18.41;78.72;100259.97;7404072;19;19923;-74
2023/07/24 08:00:34;;;;;;;11.43;6.20;;;;;;;18.44;78.61;100265.75;7402852;19;19926;-75
2023/07/24 08:03:05;;;;;;;15.02;6.47;;;;;;;18.47;78.02;100258.97;7400535;19;19923;-74
2023/07/24 08:05:34;;;;;;;9.50;5.88;;;;;;;18.54;78.50;100259.72;7403987;19;19911;-75
2023/07/24 08:08:02;;;;;;;9.65;6.55;;;;;;;18.64;77.77;100256.34;7403443;19;19934;-75
2023/07/24 08:10:31;;;;;;;16.33;6.35;;;;;;;18.67;77.20;100259.41;7401758;19;19922;-75
2023/07/24 08:13:00;;;;;;;12.55;5.88;;;;;;;18.73;77.30;100252.97;7402645;19;19956;-75
2023/07/24 08:15:28;;;;;;;10.60;6.68;;;;;;;18.77;77.38;100251.41;7403007;19;19955;-75
2023/07/24 08:17:57;;;;;;;9.82;6.00;;;;;;;18.85;76.95;100256.47;7401292;19;19983;-75
2023/07/24 08:20:28;;;;;;;8.60;5.00;;;;;;;18.90;76.56;100252.97;7402949;19;19923;-75
2023/07/24 08:22:56;;;;;;;11.15;5.97;;;;;;;18.92;75.89;100256.31;7404383;19;19992;-75
2023/07/24 08:25:25;;;;;;;6.95;5.28;;;;;;;18.96;76.51;100260.19;7403473;19;19927;-75
2023/07/24 08:27:54;;;;;;;9.57;6.18;;;;;;;19.03;76.04;100255.41;7402808;19;19922;-75
2023/07/24 08:30:23;;;;;;;11.90;5.75;;;;;;;19.15;75.71;100238.94;7400619;19;19934;-75
2023/07/24 08:32:53;;;;;;;8.88;6.28;;;;;;;19.28;75.61;100246.81;7400868;19;19929;-75
2023/07/24 08:35:22;;;;;;;9.02;5.53;;;;;;;19.40;75.57;100250.28;7400281;19;19981;-75
2023/07/24 08:37:53;;;;;;;9.18;5.88;;;;;;;19.52;74.72;100242.00;7400794;19;19986;-73
2023/07/24 08:40:22;;;;;;;7.53;5.30;;;;;;;19.57;74.49;100248.38;7400240;19;19923;-73
2023/07/24 08:42:52;;;;;;;7.70;4.80;;;;;;;19.64;74.82;100234.53;7401942;19;19922;-73
2023/07/24 08:45:22;;;;;;;11.25;5.78;;;;;;;19.66;74.16;100235.94;7397371;19;20287;-74
2023/07/24 08:47:52;;;;;;;10.75;5.65;;;;;;;19.66;74.13;100229.66;7402271;19;20370;-73
2023/07/24 08:50:22;;;;;;;13.07;6.20;;;;;;;19.70;74.21;100236.25;7402155;19;19927;-74
2023/07/24 08:52:54;;;;;;;9.77;5.68;;;;;;;19.71;73.98;100233.28;7400578;19;19946;-75
2023/07/24 08:55:23;;;;;;;14.32;6.53;;;;;;;19.75;74.13;100228.13;7397984;19;19929;-74
2023/07/24 08:57:52;;;;;;;8.82;5.82;;;;;;;19.76;73.35;100233.34;7397747;19;19929;-74
2023/07/24 09:00:21;;;;;;;9.85;6.25;;;;;;;19.73;73.07;100242.03;7400189;19;20294;-75
2023/07/24 09:02:49;;;;;;;10.70;5.35;;;;;;;19.70;73.71;100239.81;7401044;19;19914;-74
2023/07/24 09:05:18;;;;;;;9.82;5.90;;;;;;;19.70;73.06;100239.00;7401393;19;19931;-74
2023/07/24 09:07:48;;;;;;;9.32;5.75;;;;;;;19.70;73.34;100231.63;7401340;19;19918;-74
2023/07/24 09:10:26;;;;;;;8.77;5.57;;;;;;;19.71;73.22;100232.47;7398671;19;19919;-74
2023/07/24 09:12:55;;;;;;;8.63;5.28;;;;;;;19.72;73.33;100234.09;7400615;19;19936;-74
2023/07/24 09:15:23;;;;;;;8.88;4.82;;;;;;;19.70;73.24;100237.09;7399326;19;19922;-74
2023/07/24 09:17:53;;;;;;;10.05;5.07;;;;;;;19.73;72.68;100224.81;7398340;19;20344;-74
2023/07/24 09:20:22;;;;;;;11.98;5.47;;;;;;;19.76;73.25;100227.88;7399173;19;19951;-75
2023/07/24 09:23:11;;;;;;;8.68;5.30;;;;;;;19.78;73.00;100231.19;7396571;19;20000;-75
2023/07/24 09:25:44;;;;;;;7.53;5.03;;;;;;;19.80;72.33;100231.75;7398934;19;19926;-75
2023/07/24 09:28:14;;;;;;;13.57;5.80;;;;;;;19.87;72.42;100228.84;7400139;19;19933;-75
2023/07/24 09:30:43;;;;;;;10.05;4.82;;;;;;;20.00;72.31;100228.47;7399529;19;19923;-75
2023/07/24 09:33:13;;;;;;;11.57;5.68;;;;;;;20.10;72.44;100220.41;7400228;19;19922;-75
2023/07/24 09:35:41;;;;;;;8.90;5.20;;;;;;;20.20;71.92;100225.97;7398776;19;19919;-75
2023/07/24 09:38:12;;;;;;;10.25;5.55;;;;;;;20.31;70.60;100226.97;7400629;19;19918;-74
2023/07/24 09:40:45;;;;;;;8.48;5.35;;;;;;;20.35;69.96;100233.56;7404486;19;19947;-75
2023/07/24 09:43:18;;;;;;;9.15;5.30;;;;;;;20.32;69.60;100231.34;7400169;19;19922;-74
2023/07/24 09:45:48;;;;;;;10.18;5.10;;;;;;;20.37;70.61;100225.91;7397808;19;19926;-75
2023/07/24 09:48:18;;;;;;;11.93;6.65;;;;;;;20.47;69.84;100222.47;7399048;19;19922;-75
2023/07/24 09:50:51;;;;;;;8.60;5.25;;;;;;;20.54;69.91;100221.16;7396344;19;20535;-75
2023/07/24 09:53:26;;;;;;;8.30;5.38;;;;;;;20.63;69.85;100222.38;7398996;19;19923;-86
2023/07/24 09:56:00;;;;;;;8.55;4.70;;;;;;;20.71;69.59;100227.38;7400473;19;19926;-87
2023/07/24 09:58:29;;;;;;;8.82;4.55;;;;;;;20.69;69.26;100218.59;7396727;19;19990;-83
2023/07/24 10:00:58;;;;;;;10.07;4.95;;;;;;;20.68;69.14;100222.41;7399404;19;19923;-82
2023/07/24 10:03:28;;;;;;;8.75;4.57;;;;;;;20.76;68.78;100210.16;7402072;19;19986;-85
2023/07/24 10:05:57;;;;;;;10.50;4.85;;;;;;;20.78;68.57;100213.47;7393504;19;20000;-75
2023/07/24 10:08:27;;;;;;;8.07;4.07;;;;;;;20.91;68.96;100214.97;7393802;19;19990;-76
2023/07/24 10:11:00;;;;;;;7.22;4.90;;;;;;;20.95;67.77;100221.56;7398797;19;20006;-88
2023/07/24 10:13:30;;;;;;;7.45;4.45;;;;;;;20.87;69.07;100209.19;7398655;19;19956;-82
2023/07/24 10:15:59;;;;;;;14.48;4.88;;;;;;;21.04;67.95;100209.88;7401551;19;19943;-87
2023/07/24 10:18:29;;;;;;;10.00;4.03;;;;;;;21.22;66.76;100200.47;7405598;19;19914;-88
2023/07/24 10:21:03;;;;;;;7.72;4.30;;;;;;;21.33;66.22;100207.66;7399798;19;19968;-88
2023/07/24 10:23:32;;;;;;;8.23;4.15;;;;;;;21.45;67.24;100193.75;7403202;19;19948;-85
2023/07/24 10:26:08;;;;;;;8.38;4.22;;;;;;;21.50;65.53;100207.47;7405513;19;20273;-87
2023/07/24 10:28:40;;;;;;;10.35;3.60;;;;;;;21.65;65.90;100191.13;7408417;19;20024;-88
2023/07/24 10:31:10;;;;;;;6.32;3.30;;;;;;;21.79;65.25;100199.72;7408333;19;19926;-87
2023/07/24 10:33:47;;;;;;;9.35;4.50;;;;;;;21.97;63.92;100185.53;7404570;19;19930;-88
2023/07/24 10:36:20;;;;;;;8.02;4.03;;;;;;;22.08;63.10;100187.25;7405987;19;19943;-87
2023/07/24 10:38:54;;;;;;;7.43;3.45;;;;;;;22.15;63.23;100196.03;7396130;19;19931;-86
2023/07/24 10:41:25;;;;;;;5.70;3.42;;;;;;;22.18;62.68;100181.75;7404622;19;20364;-86
2023/07/24 10:43:55;;;;;;;9.20;4.72;;;;;;;22.36;63.96;100181.28;7401468;19;20503;-85
2023/07/24 10:46:23;;;;;;;7.53;3.75;;;;;;;22.61;62.99;100177.75;7400959;19;19911;-87
2023/07/24 10:48:53;;;;;;;5.25;3.42;;;;;;;22.66;60.79;100177.75;7408638;19;19985;-87
2023/07/24 10:51:24;;;;;;;9.23;3.65;;;;;;;22.77;60.74;100173.97;7401035;19;19919;-87
2023/07/24 10:53:53;;;;;;;7.35;3.42;;;;;;;22.89;61.42;100171.75;7397921;19;20336;-75
2023/07/24 10:56:21;;;;;;;6.68;3.58;;;;;;;22.91;61.46;100174.25;7400951;19;20313;-85
2023/07/24 10:58:52;;;;;;;5.38;3.35;;;;;;;22.96;60.05;100169.53;7398737;19;19923;-91
2023/07/24 11:01:21;;;;;;;6.15;2.92;;;;;;;22.88;61.08;100170.09;7406731;19;19940;-91
2023/07/24 11:03:52;;;;;;;5.78;3.25;;;;;;;23.12;59.35;100159.38;7399648;19;19922;-76
2023/07/24 11:06:22;;;;;;;6.45;2.92;;;;;;;23.25;59.47;100174.47;7397215;19;19927;-76
2023/07/24 11:08:56;;;;;;;4.85;3.40;;;;;;;23.46;58.50;100165.13;7402460;19;19932;-90
2023/07/24 11:11:24;;;;;;;4.63;3.17;;;;;;;23.50;58.37;100157.97;7403430;19;19953;-83
2023/07/24 11:13:56;;;;;;;4.78;3.42;;;;;;;23.41;58.52;100154.09;7398051;19;20633;-81
2023/07/24 11:16:24;;;;;;;;;;;;;;;23.47;56.57;100156.56;7403561;19;19923;-81
2023/07/24 11:18:55;;;;;;;5.20;3.00;;;;;;;23.80;57.35;100148.78;7397428;19;19926;-85
2023/07/24 11:21:25;;;;;;;7.00;2.95;;;;;;;24.00;56.05;100154.19;7400355;19;19946;-72
2023/07/24 11:23:56;;;;;;;7.07;2.80;;;;;;;23.93;55.61;100153.66;7401675;19;20313;-72
2023/07/24 11:26:28;;;;;;;3.80;3.10;;;;;;;24.04;55.57;100149.75;7402752;19;20402;-71
2023/07/24 11:28:59;;;;;;;4.45;2.53;;;;;;;23.95;53.61;100148.69;7402998;19;19943;-72
2023/07/24 11:31:28;;;;;;;4.82;2.83;;;;;;;23.88;55.94;100149.00;7403543;19;19918;-72
2023/07/24 11:33:57;;;;;;;6.28;3.55;;;;;;;23.70;54.74;100146.06;7399784;19;19922;-73